Time;durP1;ratioP1;P1;durP2;ratioP2;P2;SDS_P1;SDS_P2;PMS_P1;PMS_P2;Temp;Humidity;BMP_temperature;BMP_pressure;BME280_temperature;BME280_humidity;BME280_pressure;Samples;Min_cycle;Max_cycle;Signal;HPM_P1;HPM_P2
2021/12/19 00:00:51;;;;;;;7.55;2.00;;;;;;;6.84;100.00;103480.88;4711769;30;20269;-79
2021/12/19 00:08:54;;;;;;;10.05;2.80;;;;;;;6.85;100.00;103463.47;4743751;30;20040;-79
2021/12/19 00:11:26;;;;;;;5.75;2.67;;;;;;;6.85;100.00;103459.13;4742745;30;20059;-79
2021/12/19 00:13:56;;;;;;;8.20;3.22;;;;;;;6.87;100.00;103472.31;4745567;30;20376;-79
2021/12/19 00:16:25;;;;;;;13.13;4.20;;;;;;;6.87;100.00;103472.31;4742073;30;20055;-83
2021/12/19 00:18:54;;;;;;;5.65;3.28;;;;;;;6.89;100.00;103470.69;4726951;30;20396;-79
2021/12/19 00:21:25;;;;;;;7.20;4.00;;;;;;;6.90;100.00;103473.41;4689483;30;20052;-80
2021/12/19 00:23:55;;;;;;;8.27;3.85;;;;;;;6.90;100.00;103462.94;4731543;30;20048;-79
2021/12/19 00:26:24;;;;;;;14.05;5.50;;;;;;;6.92;100.00;103457.75;4736071;30;20510;-79
2021/12/19 00:28:53;;;;;;;12.65;5.43;;;;;;;6.93;100.00;103455.22;4732834;30;20483;-80
2021/12/19 00:31:22;;;;;;;15.48;6.15;;;;;;;6.95;100.00;103450.97;4745646;30;20059;-77
2021/12/19 00:33:53;;;;;;;21.77;6.75;;;;;;;6.95;100.00;103445.72;4704362;30;20042;-80
2021/12/19 00:36:22;;;;;;;15.48;6.70;;;;;;;6.95;100.00;103442.22;4717450;30;20056;-79
2021/12/19 00:38:50;;;;;;;24.25;7.90;;;;;;;6.95;100.00;103437.88;4706700;30;20608;-79
2021/12/19 00:41:20;;;;;;;19.27;7.77;;;;;;;6.95;100.00;103435.25;4746120;30;20052;-79
2021/12/19 00:43:55;;;;;;;13.55;7.22;;;;;;;6.97;100.00;103431.00;4738096;30;20306;-78
2021/12/19 00:46:26;;;;;;;17.95;7.32;;;;;;;6.98;100.00;103419.72;4703788;30;20044;-79
2021/12/19 00:48:55;;;;;;;19.63;8.13;;;;;;;6.98;100.00;103422.34;4710264;30;20047;-79
2021/12/19 00:57:18;;;;;;;16.63;7.10;;;;;;;6.96;100.00;103423.97;4709167;30;20088;-82
2021/12/19 01:05:49;;;;;;;16.77;7.15;;;;;;;6.93;100.00;103415.91;4822164;24;20053;-81
2021/12/19 01:08:18;;;;;;;11.68;6.00;;;;;;;6.92;100.00;103419.34;4677639;30;20510;-79
2021/12/19 01:10:47;;;;;;;12.00;5.15;;;;;;;6.92;100.00;103429.84;4707963;30;20072;-79
2021/12/19 01:13:17;;;;;;;10.70;5.50;;;;;;;6.92;100.00;103418.44;4708549;30;20051;-79
2021/12/19 01:15:47;;;;;;;12.95;5.43;;;;;;;6.89;100.00;103421.78;4701868;30;20063;-79
2021/12/19 01:18:15;;;;;;;7.55;4.65;;;;;;;6.89;100.00;103423.50;4717118;30;20056;-80
2021/12/19 01:20:44;;;;;;;8.23;4.07;;;;;;;6.88;100.00;103420.00;4703991;30;20508;-79
2021/12/19 01:23:13;;;;;;;8.57;3.53;;;;;;;6.85;100.00;103406.69;4689363;30;20400;-79
2021/12/19 01:25:42;;;;;;;7.90;3.35;;;;;;;6.83;100.00;103409.22;4690818;30;20053;-80
2021/12/19 01:28:11;;;;;;;8.02;3.53;;;;;;;6.81;100.00;103405.59;4692553;30;20048;-78
2021/12/19 01:30:39;;;;;;;9.20;3.17;;;;;;;6.78;100.00;103394.94;4718851;30;20060;-78
2021/12/19 01:33:08;;;;;;;11.40;3.00;;;;;;;6.78;100.00;103386.16;4680915;30;20060;-79
2021/12/19 01:35:40;;;;;;;8.52;3.63;;;;;;;6.76;100.00;103396.56;4716829;30;20052;-79
2021/12/19 01:38:08;;;;;;;8.25;3.60;;;;;;;6.75;100.00;103386.00;4699009;30;20060;-79
2021/12/19 01:40:37;;;;;;;7.43;2.67;;;;;;;6.73;100.00;103380.66;4681997;30;20138;-79
2021/12/19 01:43:06;;;;;;;9.20;2.45;;;;;;;6.72;100.00;103383.19;4715332;30;20049;-79
2021/12/19 01:45:38;;;;;;;5.30;2.25;;;;;;;6.70;100.00;103382.19;4721788;30;20052;-79
2021/12/19 01:48:10;;;;;;;12.55;2.55;;;;;;;6.67;100.00;103387.25;4727342;30;20068;-79
2021/12/19 01:50:40;;;;;;;8.40;3.00;;;;;;;6.65;100.00;103387.16;4731432;30;20056;-79
2021/12/19 01:53:12;;;;;;;9.07;2.78;;;;;;;6.63;100.00;103376.59;4718321;30;20045;-79
2021/12/19 01:55:44;;;;;;;6.95;2.17;;;;;;;6.65;100.00;103381.91;4688330;30;20052;-79
2021/12/19 01:58:13;;;;;;;7.03;2.03;;;;;;;6.64;100.00;103385.34;4713728;30;20079;-79
2021/12/19 02:00:56;;;;;;;7.72;2.28;;;;;;;6.63;100.00;103367.81;4732085;30;20048;-78
2021/12/19 02:03:26;;;;;;;4.43;2.10;;;;;;;6.61;100.00;103375.56;4712495;30;20052;-78
2021/12/19 02:05:57;;;;;;;7.28;2.45;;;;;;;6.62;100.00;103372.16;4719531;30;20078;-78
2021/12/19 02:08:25;;;;;;;9.80;2.58;;;;;;;6.60;100.00;103365.91;4725190;30;20070;-79
2021/12/19 02:10:54;;;;;;;8.23;2.95;;;;;;;6.59;100.00;103364.09;4694230;30;20056;-79
2021/12/19 02:13:23;;;;;;;6.25;2.80;;;;;;;6.56;100.00;103355.16;4711977;30;20061;-78
2021/12/19 02:15:51;;;;;;;7.70;2.67;;;;;;;6.56;100.00;103353.47;4724030;30;20627;-78
2021/12/19 02:18:24;;;;;;;6.80;3.00;;;;;;;6.55;100.00;103345.50;4732773;30;20040;-78
2021/12/19 02:20:56;;;;;;;7.72;2.67;;;;;;;6.54;100.00;103342.00;4714556;30;20052;-79
2021/12/19 02:23:27;;;;;;;7.43;2.90;;;;;;;6.55;100.00;103358.59;4765722;30;20526;-78
2021/12/19 02:25:57;;;;;;;5.57;1.80;;;;;;;6.54;100.00;103347.22;4729753;30;20056;-78
2021/12/19 02:28:25;;;;;;;7.00;1.90;;;;;;;6.55;100.00;103350.75;4751869;30;20051;-79
2021/12/19 02:30:54;;;;;;;3.58;2.20;;;;;;;6.54;100.00;103341.06;4758310;30;20255;-78
2021/12/19 02:33:30;;;;;;;6.25;2.35;;;;;;;6.53;100.00;103342.78;4739983;30;20067;-78
2021/12/19 02:36:37;;;;;;;7.65;2.22;;;;;;;6.53;100.00;103345.41;4733337;30;20686;-79
2021/12/19 02:50:16;;;;;;;8.25;3.65;;;;;;;6.54;100.00;103321.03;4754373;30;20052;-79
2021/12/19 02:52:45;;;;;;;7.90;3.47;;;;;;;6.53;100.00;103324.44;4760818;29;20056;-79
2021/12/19 02:55:15;;;;;;;14.20;3.92;;;;;;;6.53;100.00;103323.56;4749860;30;20052;-79
2021/12/19 02:57:46;;;;;;;12.02;3.83;;;;;;;6.54;100.00;103325.34;4723843;30;20506;-79
2021/12/19 03:00:20;;;;;;;7.38;3.40;;;;;;;6.56;100.00;103323.72;4776224;29;20533;-78
2021/12/19 03:02:49;;;;;;;12.88;3.72;;;;;;;6.58;100.00;103327.34;4751566;30;20936;-79
2021/12/19 03:05:19;;;;;;;23.08;3.47;;;;;;;6.59;100.00;103326.53;4714384;30;20050;-80
2021/12/19 03:07:50;;;;;;;9.35;3.65;;;;;;;6.59;100.00;103316.94;4715903;30;20059;-80
2021/12/19 03:18:30;;;;;;;9.30;3.60;;;;;;;6.61;100.00;103310.06;4764863;30;20052;-78
2021/12/19 03:20:59;;;;;;;8.50;4.00;;;;;;;6.62;100.00;103317.13;4713492;30;20764;-77
2021/12/19 03:23:28;;;;;;;12.05;3.75;;;;;;;6.62;100.00;103309.28;4741297;30;20048;-79
2021/12/19 03:25:56;;;;;;;13.50;4.80;;;;;;;6.62;100.00;103306.66;4748869;30;20048;-78
2021/12/19 03:28:25;;;;;;;16.80;4.65;;;;;;;6.63;100.00;103302.31;4723732;30;20081;-80
2021/12/19 03:30:53;;;;;;;11.57;3.97;;;;;;;6.63;100.00;103298.00;4744127;30;20343;-78
2021/12/19 03:33:22;;;;;;;12.57;3.90;;;;;;;6.63;100.00;103287.50;4748419;30;20051;-78
2021/12/19 03:35:50;;;;;;;12.45;3.78;;;;;;;6.63;100.00;103284.91;4720909;30;20066;-78
2021/12/19 03:38:19;;;;;;;13.80;3.78;;;;;;;6.63;100.00;103277.03;4740786;30;20055;-79
2021/12/19 03:41:09;;;;;;;24.58;3.50;;;;;;;6.62;100.00;103285.69;4751501;30;20355;-78
2021/12/19 03:43:37;;;;;;;10.98;3.00;;;;;;;6.61;100.00;103285.59;4715192;30;20047;-78
2021/12/19 03:46:06;;;;;;;18.40;4.07;;;;;;;6.61;100.00;103283.88;4750874;30;20514;-79
2021/12/19 03:48:35;;;;;;;17.20;3.40;;;;;;;6.61;100.00;103286.50;4749867;30;20537;-80
2021/12/19 03:51:04;;;;;;;13.77;3.58;;;;;;;6.61;100.00;103283.88;4760021;29;20263;-78
2021/12/19 03:53:33;;;;;;;16.92;3.67;;;;;;;6.60;100.00;103279.47;4740646;30;20048;-79
2021/12/19 03:56:02;;;;;;;14.77;3.97;;;;;;;6.60;100.00;103279.47;4740977;30;20189;-80
2021/12/19 03:58:30;;;;;;;14.40;3.28;;;;;;;6.61;100.00;103276.00;4734609;30;20056;-78
2021/12/19 04:01:00;;;;;;;13.43;4.03;;;;;;;6.62;100.00;103272.59;4728017;30;20244;-78
2021/12/19 04:03:29;;;;;;;18.23;4.43;;;;;;;6.62;100.00;103277.84;4753104;30;20052;-79
2021/12/19 04:05:58;;;;;;;17.17;4.80;;;;;;;6.63;100.00;103265.63;4738286;30;20169;-78
2021/12/19 04:08:27;;;;;;;21.20;5.25;;;;;;;6.65;100.00;103256.13;4748268;30;20048;-78
2021/12/19 04:10:55;;;;;;;12.95;4.40;;;;;;;6.65;100.00;103256.13;4750348;30;20046;-78
2021/12/19 04:13:24;;;;;;;16.88;5.13;;;;;;;6.68;100.00;103261.56;4727207;30;20055;-78
2021/12/19 04:15:53;;;;;;;11.15;4.25;;;;;;;6.69;100.00;103257.22;4669251;30;20044;-78
2021/12/19 04:18:21;;;;;;;21.05;5.70;;;;;;;6.70;100.00;103261.66;4728444;30;20177;-78
2021/12/19 04:20:50;;;;;;;17.52;4.15;;;;;;;6.71;100.00;103263.44;4718954;30;20414;-79
2021/12/19 04:23:19;;;;;;;24.52;6.05;;;;;;;6.71;100.00;103264.38;4738456;30;20058;-78
2021/12/19 04:25:49;;;;;;;22.65;5.18;;;;;;;6.71;100.00;103271.31;4739548;30;20044;-78
2021/12/19 04:28:18;;;;;;;;;;;;;;;6.71;100.00;103263.44;4715836;30;20059;-79
2021/12/19 04:30:46;;;;;;;19.13;5.20;;;;;;;6.70;100.00;103262.56;4720132;30;20401;-78
2021/12/19 04:33:15;;;;;;;18.92;6.47;;;;;;;6.71;100.00;103260.81;4743993;30;20083;-79
2021/12/19 04:35:45;;;;;;;19.80;5.95;;;;;;;6.70;100.00;103259.03;4733147;30;20048;-79
2021/12/19 04:57:43;;;;;;;17.40;6.10;;;;;;;6.71;100.00;103239.88;4744293;30;20374;-79
2021/12/19 05:00:19;;;;;;;16.52;6.85;;;;;;;6.70;100.00;103240.69;4722828;30;20059;-79
2021/12/19 05:02:56;;;;;;;19.85;6.82;;;;;;;6.68;100.00;103230.13;4706582;30;20407;-79
2021/12/19 05:14:09;;;;;;;22.58;7.72;;;;;;;6.70;100.00;103222.34;4738840;30;20055;-78
2021/12/19 05:16:42;;;;;;;25.15;8.18;;;;;;;6.69;100.00;103220.53;4730197;30;20066;-78
2021/12/19 05:19:27;;;;;;;21.05;8.13;;;;;;;6.69;100.00;103229.31;4703673;30;20435;-79
2021/12/19 05:22:00;;;;;;;25.52;8.57;;;;;;;6.69;100.00;103220.53;4752807;30;20043;-79
2021/12/19 05:27:08;;;;;;;31.25;9.05;;;;;;;6.67;100.00;103212.59;4735727;30;20056;-79
2021/12/19 05:29:38;;;;;;;21.67;9.43;;;;;;;6.67;100.00;103207.34;4761947;30;20059;-78
2021/12/19 05:32:13;;;;;;;18.88;7.65;;;;;;;6.67;100.00;103216.94;4740353;30;20059;-79
2021/12/19 05:34:44;;;;;;;18.00;7.82;;;;;;;6.68;100.00;103213.50;4717205;30;20059;-78
2021/12/19 05:45:34;;;;;;;27.08;8.50;;;;;;;6.64;100.00;103200.22;4752245;30;20055;-78
2021/12/19 05:48:03;;;;;;;25.48;7.95;;;;;;;6.64;100.00;103200.22;4712436;30;20040;-78
2021/12/19 05:50:31;;;;;;;28.70;8.32;;;;;;;6.64;100.00;103205.47;4721014;30;20086;-79
2021/12/19 05:53:00;;;;;;;27.73;8.18;;;;;;;6.64;100.00;103207.19;4757879;30;20054;-79
2021/12/19 05:55:28;;;;;;;30.42;8.07;;;;;;;6.64;100.00;103202.84;4704102;30;20291;-80
2021/12/19 05:57:57;;;;;;;21.05;7.13;;;;;;;6.64;100.00;103208.06;4735059;30;20043;-79
2021/12/19 06:00:29;;;;;;;22.33;6.38;;;;;;;6.63;100.00;103216.78;4749391;30;20276;-79
2021/12/19 06:03:02;;;;;;;25.55;6.03;;;;;;;6.62;100.00;103199.22;4723545;30;20140;-79
2021/12/19 06:05:40;;;;;;;15.70;4.32;;;;;;;6.60;100.00;103210.44;4706540;30;20052;-79
2021/12/19 06:08:09;;;;;;;10.95;2.90;;;;;;;6.57;100.00;103203.28;4740096;30;20054;-79
2021/12/19 06:10:38;;;;;;;7.88;2.30;;;;;;;6.55;100.00;103212.78;4740140;30;20043;-79
2021/12/19 06:38:12;;;;;;;5.32;2.20;;;;;;;6.41;100.00;103172.72;4608727;31;20059;-81
2021/12/19 06:47:06;;;;;;;15.25;3.03;;;;;;;6.41;100.00;103172.72;4563665;31;20067;-80
2021/12/19 06:50:41;;;;;;;11.07;2.75;;;;;;;6.44;100.00;103174.59;4529910;31;20765;-78
2021/12/19 06:53:09;;;;;;;12.80;3.53;;;;;;;6.44;100.00;103174.59;4571536;31;20060;-78
2021/12/19 06:55:38;;;;;;;13.80;3.25;;;;;;;6.44;100.00;103162.41;4588249;30;20357;-79
2021/12/19 06:58:06;;;;;;;12.50;3.28;;;;;;;6.47;100.00;103160.78;4609117;30;20055;-78
2021/12/19 07:00:35;;;;;;;16.23;4.18;;;;;;;6.48;100.00;103170.44;4633931;30;20078;-79
2021/12/19 07:03:03;;;;;;;19.13;4.18;;;;;;;6.48;100.00;103163.47;4642279;30;20078;-79
2021/12/19 07:05:32;;;;;;;17.23;4.00;;;;;;;6.50;100.00;103168.81;4629535;30;20062;-78
2021/12/19 07:08:01;;;;;;;20.70;4.07;;;;;;;6.51;100.00;103163.66;4604991;30;20531;-79
2021/12/19 07:10:29;;;;;;;18.02;4.00;;;;;;;6.51;100.00;103158.41;4629417;30;20058;-79
2021/12/19 07:12:58;;;;;;;19.65;4.45;;;;;;;6.53;100.00;103162.03;4630084;30;20089;-79
2021/12/19 07:15:27;;;;;;;28.55;4.60;;;;;;;6.53;100.00;103159.41;4654659;30;20053;-79
2021/12/19 07:18:01;;;;;;;26.50;5.15;;;;;;;6.55;100.00;103162.13;4656232;30;20049;-79
2021/12/19 07:20:30;;;;;;;27.20;5.78;;;;;;;6.56;100.00;103153.44;4676611;30;20056;-78
2021/12/19 07:22:58;;;;;;;22.35;4.78;;;;;;;6.55;100.00;103149.91;4702780;30;20056;-79
2021/12/19 07:25:27;;;;;;;21.52;4.60;;;;;;;6.55;100.00;103149.91;4749078;30;20063;-79
2021/12/19 07:27:56;;;;;;;18.35;4.30;;;;;;;6.55;100.00;103149.03;4745211;30;20068;-78
2021/12/19 07:30:25;;;;;;;25.92;5.30;;;;;;;6.55;100.00;103144.69;4729932;30;20063;-79
2021/12/19 07:32:55;;;;;;;27.97;5.33;;;;;;;6.55;100.00;103149.03;4725235;30;20279;-78
2021/12/19 07:35:24;;;;;;;19.23;4.45;;;;;;;6.56;100.00;103156.06;4747268;30;20305;-78
2021/12/19 07:37:55;;;;;;;23.95;5.25;;;;;;;6.58;100.00;103152.72;4681998;30;20196;-78
2021/12/19 07:40:27;;;;;;;27.58;5.57;;;;;;;6.58;100.00;103152.72;4703821;30;20211;-79
2021/12/19 07:42:58;;;;;;;18.10;4.70;;;;;;;6.60;100.00;103152.81;4693254;30;22272;-78
2021/12/19 07:45:27;;;;;;;23.33;5.40;;;;;;;6.59;100.00;103136.16;4732845;30;20051;-79
2021/12/19 07:47:56;;;;;;;24.45;4.15;;;;;;;6.60;100.00;103143.22;4734437;30;20095;-78
2021/12/19 07:50:27;;;;;;;20.42;3.90;;;;;;;6.60;100.00;103138.00;4733086;30;20071;-79
2021/12/19 07:52:56;;;;;;;14.82;3.92;;;;;;;6.61;100.00;103137.16;4738033;30;20067;-79
2021/12/19 07:55:25;;;;;;;21.73;4.18;;;;;;;6.59;100.00;103138.78;4722593;30;20051;-79
2021/12/19 07:57:53;;;;;;;18.52;3.60;;;;;;;6.59;100.00;103127.41;4713923;30;20637;-79
2021/12/19 08:00:22;;;;;;;22.08;4.03;;;;;;;6.59;100.00;103127.41;4695158;30;20043;-78
2021/12/19 08:02:51;;;;;;;25.52;3.60;;;;;;;6.59;100.00;103132.66;4728793;30;20048;-78
2021/12/19 08:05:21;;;;;;;19.08;3.45;;;;;;;6.58;100.00;103126.53;4751214;30;20388;-79
2021/12/19 08:07:55;;;;;;;16.23;3.83;;;;;;;6.58;100.00;103125.63;4680087;30;20610;-78
2021/12/19 08:12:52;;;;;;;18.08;3.47;;;;;;;6.58;100.00;103128.25;4739387;30;23695;-78
2021/12/19 08:15:21;;;;;;;15.50;3.83;;;;;;;6.58;100.00;103120.41;4777273;30;20051;-79
2021/12/19 08:17:49;;;;;;;14.52;3.28;;;;;;;6.60;100.00;103118.75;4706328;30;20257;-79
2021/12/19 08:20:18;;;;;;;13.70;3.38;;;;;;;6.59;100.00;103115.22;4713065;30;20048;-81
2021/12/19 08:22:49;;;;;;;10.90;3.50;;;;;;;6.60;100.00;103119.66;4742334;30;20355;-79
2021/12/19 08:25:17;;;;;;;22.63;3.53;;;;;;;6.62;100.00;103114.50;4735074;30;20062;-78
2021/12/19 08:27:46;;;;;;;13.15;3.97;;;;;;;6.62;100.00;103115.41;4690648;30;20048;-79
2021/12/19 08:30:16;;;;;;;12.95;3.50;;;;;;;6.63;100.00;103119.84;4728856;30;20055;-79
2021/12/19 08:32:45;;;;;;;10.45;3.80;;;;;;;6.65;100.00;103122.50;4719983;30;23748;-79
2021/12/19 08:35:14;;;;;;;11.15;3.38;;;;;;;6.66;100.00;103121.72;4731206;30;20060;-79
2021/12/19 08:37:42;;;;;;;12.25;3.63;;;;;;;6.68;100.00;103116.56;4707379;30;20271;-79
2021/12/19 08:40:12;;;;;;;15.82;3.55;;;;;;;6.68;100.00;103124.41;4742491;30;20048;-79
2021/12/19 08:42:40;;;;;;;23.55;3.90;;;;;;;6.70;100.00;103120.16;4721368;30;20060;-79
2021/12/19 08:45:10;;;;;;;18.90;3.53;;;;;;;6.70;100.00;103113.19;4737146;30;20055;-78
2021/12/19 08:47:38;;;;;;;16.88;3.90;;;;;;;6.73;100.00;103113.38;4720780;30;20419;-79
2021/12/19 08:50:09;;;;;;;16.05;3.13;;;;;;;6.75;100.00;103116.09;4743145;30;20051;-79
2021/12/19 08:52:37;;;;;;;18.50;4.03;;;;;;;6.75;100.00;103110.84;4712295;30;20435;-81
2021/12/19 08:55:07;;;;;;;16.85;3.72;;;;;;;6.78;100.00;103105.75;4717552;30;20052;-79
2021/12/19 08:57:36;;;;;;;15.27;3.80;;;;;;;6.78;100.00;103111.00;4714378;30;20059;-79
2021/12/19 09:00:10;;;;;;;15.93;3.72;;;;;;;6.79;100.00;103110.19;4727303;30;20055;-80
2021/12/19 09:02:41;;;;;;;17.40;3.60;;;;;;;6.81;100.00;103105.94;4755755;30;20047;-79
2021/12/19 09:05:10;;;;;;;24.45;3.97;;;;;;;6.82;100.00;103108.66;4724762;30;20048;-78
2021/12/19 09:07:38;;;;;;;16.20;3.88;;;;;;;6.83;100.00;103114.78;4718699;30;20664;-79
2021/12/19 09:10:08;;;;;;;16.52;3.95;;;;;;;6.84;100.00;103116.56;4738059;30;20432;-78
2021/12/19 09:12:37;;;;;;;18.50;3.75;;;;;;;6.86;100.00;103108.78;4688361;30;20052;-79
2021/12/19 09:15:08;;;;;;;17.33;4.25;;;;;;;6.86;100.00;103111.41;4764994;30;20054;-78
2021/12/19 09:17:36;;;;;;;22.17;3.47;;;;;;;6.85;100.00;103102.66;4723759;30;20047;-78
2021/12/19 09:20:07;;;;;;;19.95;4.63;;;;;;;6.86;100.00;103106.16;4704744;30;20064;-79
2021/12/19 09:22:36;;;;;;;19.42;3.72;;;;;;;6.86;100.00;103108.78;4706743;30;20050;-79
2021/12/19 09:25:19;;;;;;;20.90;4.45;;;;;;;6.86;100.00;103112.31;4733356;30;20051;-77
2021/12/19 09:27:49;;;;;;;24.48;4.78;;;;;;;6.87;100.00;103121.09;4690628;30;20067;-78
2021/12/19 09:30:18;;;;;;;16.98;3.92;;;;;;;6.87;100.00;103114.13;4746299;30;20055;-79
2021/12/19 09:32:47;;;;;;;16.67;3.92;;;;;;;6.87;100.00;103113.22;4697793;30;20466;-78
2021/12/19 09:35:16;;;;;;;28.50;5.18;;;;;;;6.87;100.00;103111.50;4723249;30;20048;-79
2021/12/19 09:37:44;;;;;;;20.55;4.50;;;;;;;6.87;100.00;103119.38;4722771;30;20546;-79
2021/12/19 09:40:20;;;;;;;18.58;3.90;;;;;;;6.86;100.00;103108.78;4746861;30;20063;-79
2021/12/19 09:43:00;;;;;;;15.25;3.78;;;;;;;6.86;100.00;103114.94;4736989;30;20086;-79
2021/12/19 09:45:31;;;;;;;14.35;3.65;;;;;;;6.85;100.00;103113.13;4708667;30;20051;-79
2021/12/19 09:48:00;;;;;;;;;;;;;;;6.85;100.00;103105.28;4743295;30;20055;-79
2021/12/19 09:50:29;;;;;;;14.57;3.33;;;;;;;6.85;100.00;103105.28;4713117;30;19933;-79
2021/12/19 09:52:59;;;;;;;14.88;3.40;;;;;;;6.86;100.00;103104.44;4736133;30;20051;-78
2021/12/19 09:55:30;;;;;;;24.38;3.40;;;;;;;6.87;100.00;103101.03;4711520;30;20067;-78
2021/12/19 09:57:59;;;;;;;14.07;3.10;;;;;;;6.87;100.00;103093.16;4724728;30;20040;-79
2021/12/19 10:00:28;;;;;;;19.90;3.45;;;;;;;6.90;100.00;103102.91;4710200;30;20059;-78
2021/12/19 10:02:57;;;;;;;22.23;3.20;;;;;;;6.91;100.00;103102.97;4740701;30;20486;-79
2021/12/19 10:11:14;;;;;;;22.65;4.40;;;;;;;6.95;100.00;103097.09;4669478;30;20058;-80
2021/12/19 10:16:12;;;;;;;;;;;;;;;;;;;;;
2021/12/19 10:18:57;;;;;;;14.18;3.13;;;;;;;7.00;100.00;103082.50;4678636;30;20454;-79
2021/12/19 10:27:29;;;;;;;;;;;;;;;;;;;;;
2021/12/19 10:31:22;;;;;;;;;;;;;;;;;;;;;
2021/12/19 10:35:55;;;;;;;23.42;5.05;;;;;;;7.09;100.00;103061.13;4687812;30;20068;-81
2021/12/19 10:39:26;;;;;;;;;;;;;;;;;;;;;
2021/12/19 10:47:44;;;;;;;;;;;;;;;;;;;;;
2021/12/19 10:58:38;;;;;;;21.90;3.60;;;;;;;7.25;100.00;103019.97;4707661;30;20063;-80
2021/12/19 11:01:38;;;;;;;27.83;3.92;;;;;;;7.27;100.00;103021.84;4716760;30;20051;-80
2021/12/19 11:04:35;;;;;;;21.33;3.40;;;;;;;7.27;100.00;103013.97;4723468;30;20057;-82
2021/12/19 11:07:25;;;;;;;25.70;5.28;;;;;;;7.29;100.00;103007.09;4701545;30;20064;-81
2021/12/19 11:11:03;;;;;;;17.48;3.70;;;;;;;7.30;100.00;102982.69;4684749;30;20072;-81
2021/12/19 11:14:43;;;;;;;15.55;3.38;;;;;;;7.33;100.00;102982.81;4685564;30;20068;-79
2021/12/19 11:18:44;;;;;;;;;;;;;;;;;;;;;
2021/12/19 11:22:28;;;;;;;27.48;3.92;;;;;;;7.35;100.00;102975.97;4680992;30;20414;-81
2021/12/19 11:25:39;;;;;;;27.83;4.82;;;;;;;7.35;100.00;102973.34;4664070;30;20335;-80
2021/12/19 11:29:27;;;;;;;21.45;5.38;;;;;;;7.36;100.00;102977.75;4651992;30;20042;-79
2021/12/19 11:32:18;;;;;;;21.15;4.32;;;;;;;7.37;100.00;102969.06;4633368;30;20193;-81
2021/12/19 11:35:36;;;;;;;;;;;;;;;;;;;;;
2021/12/19 11:43:18;;;;;;;28.98;3.92;;;;;;;7.40;100.00;102961.31;4664505;30;20058;-79
2021/12/19 11:46:11;;;;;;;14.02;2.80;;;;;;;7.41;100.00;102963.13;4657066;30;20065;-79
2021/12/19 11:52:44;;;;;;;15.20;2.90;;;;;;;7.41;100.00;102954.38;4648262;30;20054;-81
2021/12/19 11:56:10;;;;;;;17.20;2.85;;;;;;;7.43;100.00;102965.84;4630765;30;20069;-80
2021/12/19 12:04:21;;;;;;;10.10;2.05;;;;;;;7.40;100.00;102932.47;4591075;31;21698;-80
2021/12/19 12:08:11;;;;;;;7.63;2.10;;;;;;;7.42;100.00;102936.06;4599723;31;20063;-80
2021/12/19 12:11:36;;;;;;;10.88;2.67;;;;;;;7.40;100.00;102932.47;4586153;31;20047;-78
2021/12/19 12:14:34;;;;;;;13.48;2.58;;;;;;;7.43;100.00;102937.00;4593479;31;20074;-79
2021/12/19 12:17:35;;;;;;;9.52;1.70;;;;;;;7.40;100.00;102921.97;4579384;31;20446;-78
2021/12/19 12:20:16;;;;;;;15.65;3.10;;;;;;;7.42;100.00;102929.94;4590144;30;20278;-79
2021/12/19 12:22:53;;;;;;;16.45;2.85;;;;;;;7.43;100.00;102926.50;4612567;30;20091;-79
2021/12/19 12:53:07;;;;;;;16.25;2.85;;;;;;;7.31;100.00;102887.41;4619141;30;20065;-78
2021/12/19 12:55:36;;;;;;;21.88;3.97;;;;;;;7.34;100.00;102889.31;4662989;30;20116;-78
2021/12/19 12:58:15;;;;;;;21.38;3.65;;;;;;;7.36;100.00;102890.28;4626551;30;20054;-79
2021/12/19 13:00:44;;;;;;;14.48;3.08;;;;;;;7.37;100.00;102884.19;4672411;30;20303;-78
2021/12/19 13:03:28;;;;;;;16.10;3.58;;;;;;;7.39;100.00;102872.06;4650868;30;20068;-78
2021/12/19 13:05:57;;;;;;;18.88;3.50;;;;;;;7.40;100.00;102860.75;4618615;30;20528;-80
2021/12/19 13:08:25;;;;;;;23.33;3.83;;;;;;;7.42;100.00;102857.38;4655724;30;20073;-78
2021/12/19 13:10:54;;;;;;;18.95;3.33;;;;;;;7.43;100.00;102855.66;4649418;30;20057;-79
2021/12/19 13:13:30;;;;;;;17.10;3.58;;;;;;;7.48;100.00;102853.25;4637958;30;20099;-77
2021/12/19 13:16:04;;;;;;;17.63;4.10;;;;;;;7.50;100.00;102849.88;4647660;30;20077;-79
2021/12/19 13:18:44;;;;;;;13.82;3.10;;;;;;;7.50;100.00;102854.22;4657942;30;20427;-79
2021/12/19 13:21:16;;;;;;;16.90;3.58;;;;;;;7.51;100.00;102859.56;4647215;30;20727;-78
2021/12/19 13:23:44;;;;;;;17.48;3.50;;;;;;;7.53;100.00;102859.63;4716467;30;20040;-78
2021/12/19 13:26:14;;;;;;;27.48;3.95;;;;;;;7.52;100.00;102856.09;4709698;30;20189;-79
2021/12/19 13:28:45;;;;;;;22.70;4.15;;;;;;;7.53;100.00;102847.41;4673808;30;20277;-78
2021/12/19 13:31:21;;;;;;;;;;;;;;;7.54;100.00;102848.28;4691077;30;20047;-78
2021/12/19 13:33:53;;;;;;;15.15;3.28;;;;;;;7.55;100.00;102852.72;4705124;30;19930;-78
2021/12/19 13:36:22;;;;;;;13.18;3.10;;;;;;;7.56;100.00;102849.25;4645629;30;20502;-79
2021/12/19 13:38:53;;;;;;;11.68;2.47;;;;;;;7.57;100.00;102844.09;4732964;30;20051;-79
2021/12/19 13:41:23;;;;;;;9.40;2.40;;;;;;;7.59;100.00;102846.78;4716378;30;20499;-78
2021/12/19 13:43:54;;;;;;;15.07;3.20;;;;;;;7.59;100.00;102850.31;4694266;30;20083;-78
2021/12/19 13:46:23;;;;;;;12.45;2.35;;;;;;;7.58;100.00;102851.16;4724932;30;20411;-78
2021/12/19 13:48:54;;;;;;;12.50;3.20;;;;;;;7.60;100.00;102856.47;4692404;30;20438;-78
2021/12/19 13:51:27;;;;;;;13.80;2.83;;;;;;;7.58;100.00;102853.78;4657073;30;20060;-78
2021/12/19 13:53:58;;;;;;;15.55;3.13;;;;;;;7.57;100.00;102849.34;4698615;30;20052;-78
2021/12/19 13:56:30;;;;;;;13.43;3.70;;;;;;;7.55;100.00;102853.63;4700327;30;20075;-79
2021/12/19 13:59:02;;;;;;;12.52;3.10;;;;;;;7.54;100.00;102858.78;4705176;30;20061;-78
2021/12/19 14:01:38;;;;;;;16.95;2.72;;;;;;;7.50;100.00;102854.22;4700004;30;20049;-79
2021/12/19 14:04:24;;;;;;;14.55;2.70;;;;;;;7.45;100.00;102845.22;4693502;30;20427;-80
2021/12/19 14:11:22;;;;;;;12.13;2.28;;;;;;;7.36;100.00;102836.09;4703165;30;20056;-77
2021/12/19 14:14:07;;;;;;;15.13;3.13;;;;;;;7.35;100.00;102836.94;4693700;30;20052;-77
2021/12/19 14:16:39;;;;;;;7.82;1.90;;;;;;;7.32;100.00;102826.28;4708324;30;20057;-79
2021/12/19 14:19:21;;;;;;;;;;;;;;;7.33;100.00;102837.66;4712374;30;20629;-77
2021/12/19 14:22:06;;;;;;;10.00;2.15;;;;;;;7.32;100.00;102838.50;4710169;30;19930;-77
2021/12/19 14:24:37;;;;;;;14.25;2.83;;;;;;;7.31;100.00;102840.22;4702795;30;20059;-77
2021/12/19 14:27:29;;;;;;;9.55;1.90;;;;;;;7.31;100.00;102834.97;4704871;30;20052;-78
2021/12/19 14:30:07;;;;;;;14.10;2.55;;;;;;;7.29;100.00;102818.25;4697903;30;20060;-78
2021/12/19 14:32:45;;;;;;;14.45;2.42;;;;;;;7.29;100.00;102827.88;4712495;30;20055;-79
2021/12/19 14:35:17;;;;;;;13.65;2.17;;;;;;;7.30;100.00;102824.44;4709054;30;20154;-78
2021/12/19 14:37:50;;;;;;;11.40;2.55;;;;;;;7.28;100.00;102821.72;4731541;30;21089;-82
2021/12/19 14:40:33;;;;;;;12.82;2.53;;;;;;;7.27;100.00;102833.03;4680046;30;20064;-77
2021/12/19 14:43:17;;;;;;;12.07;2.38;;;;;;;7.26;100.00;102822.47;4700783;30;20196;-80
2021/12/19 14:45:59;;;;;;;14.48;2.70;;;;;;;7.23;100.00;102823.22;4687733;30;20064;-78
2021/12/19 14:48:39;;;;;;;13.50;2.40;;;;;;;7.24;100.00;102819.78;4730194;30;20063;-80
2021/12/19 14:51:21;;;;;;;10.38;2.58;;;;;;;7.20;100.00;102816.13;4736344;30;20265;-78
2021/12/19 14:53:59;;;;;;;12.73;3.60;;;;;;;7.20;100.00;102823.97;4733297;30;20055;-78
2021/12/19 14:56:31;;;;;;;12.25;2.75;;;;;;;7.20;100.00;102833.53;4737459;30;20055;-79
2021/12/19 14:59:02;;;;;;;14.23;2.42;;;;;;;7.19;100.00;102813.41;4725039;30;20074;-79
2021/12/19 15:01:37;;;;;;;9.48;2.30;;;;;;;7.18;100.00;102808.97;4740012;30;20048;-79
2021/12/19 15:04:14;;;;;;;9.27;2.42;;;;;;;7.18;100.00;102790.63;4754847;29;20767;-80
2021/12/19 15:06:47;;;;;;;6.43;1.77;;;;;;;7.18;100.00;102796.78;4758792;30;20062;-77
2021/12/19 15:09:19;;;;;;;14.68;2.65;;;;;;;7.19;100.00;102792.44;4745810;30;20319;-78
2021/12/19 15:11:47;;;;;;;5.70;2.03;;;;;;;7.20;100.00;102802.09;4732668;30;20075;-78